Cedar City, Utah Weather observations

Data are for observation ending at time listed.
 Day   Time    Ave.   Ave.  Ave.  Vector   Max.   Stn.    Total    Solar   Ave.  
  of    of     Air    Rel.  Wind   Wind    Wind   Baro.  Precip.   Rad.    Soil  
Year   Day     Temp.  Hum.  Speed  Dir.    Gust   Pres.                    Temp. 
2016   (MST)    F      %     mph   deg.    mph     mb.     in.     W/m2     F   
------------------------------------------------------------------------------
 344    7:50   30.4    76    1.1    99      3.0   827.7    0.00       4    33.9
 344    8:00   30.4    77    1.4   118      2.9   827.6    0.00      11    33.9
 344    8:10   31.1    77    1.5   107      3.4   827.6    0.00      20    34.0
 344    8:20   32.9    72    1.9   144      4.5   827.4    0.00      35    34.0
 344    8:30   34.3    68    0.7   146      3.5   827.2    0.00      43    34.0
 344    8:40   35.0    67    1.4   206      3.7   827.2    0.00      43    34.0
 344    8:50   35.2    66    0.6   178      3.6   827.4    0.00      55    34.0
 344    9:00   35.7    66    0.8   215      2.7   827.6    0.00      69    34.0
 344    9:10   36.0    65    1.9   141      4.2   827.7    0.00      91    34.0
 344    9:20   36.7    63    1.6   101      3.7   827.6    0.00     114    34.0
 344    9:30   37.8    62    0.7    64      3.4   827.7    0.00     133    33.9
 344    9:40   38.4    60    0.8   162      3.2   827.8    0.00     157    34.0
 344    9:50   39.6    55    3.3   207      6.8   828.0    0.00     239    34.0
 344   10:00   40.1    51    5.1   212     10.7   828.0    0.00     240    34.0
 344   10:10   40.2    50    5.1   228     11.5   828.2    0.00     208    34.1
 344   10:20   40.3    50    3.8   221      7.5   828.3    0.00     192    34.1
 344   10:30   40.7    49    3.9   203      9.9   828.2    0.00     254    34.1
 344   10:40   41.3    49    4.5   212      7.5   828.1    0.00     298    34.1
 344   10:50   42.3    49    3.8   204      8.0   828.1    0.00     323    34.2
 344   11:00   43.5    48    2.5   192      5.3   827.9    0.00     443    34.2
 344   11:10   45.3    47    0.8   269      3.1   827.8    0.00     492    34.3
 344   11:20   45.0    46    2.4   274      5.6   827.6    0.00     491    34.3
 344   11:30   45.2    46    3.0   214      5.3   827.5    0.00     464    34.3
 344   11:40   46.2    44    1.9   227      5.1   827.6    0.00     489    34.3
 344   11:50   46.7    42    2.2   239      5.3   827.7    0.00     502    34.3
 344   12:00   47.5    41    2.1   157      6.6   827.6    0.00     502    34.4
 344   12:10   47.3    40    2.6   224      6.6   827.4    0.00     513    34.4
 344   12:20   47.6    39    4.7   211     11.1   827.4    0.00     518    34.5
 344   12:30   47.6    39    6.0   221     11.5   827.2    0.00     534    34.5
 344   12:40   47.9    39    6.5   216     12.4   827.1    0.00     571    34.5
 344   12:50   48.0    39    7.4   226     12.0   827.1    0.00     551    34.6
 344   13:00   48.2    40    5.9   231     12.2   827.0    0.00     514    34.6
 344   13:10   48.5    40    5.5   227     11.5   826.9    0.00     430    34.7
 344   13:20   48.4    41    5.6   229      9.5   826.8    0.00     330    34.7
 344   13:30   47.7    42    6.0   216     10.5   826.5    0.00     214    34.8
 344   13:40   47.4    43    5.9   217     10.2   826.3    0.00     236    34.8
 344   13:50   47.2    44    5.8   213     10.1   826.1    0.00     320    34.9
 344   14:00   48.1    43    5.2   224     10.2   826.0    0.00     383    35.0
 344   14:10   48.6    43    5.6   223     11.5   826.2    0.00     326    35.1
 344   14:20   48.3    45    6.9   219     11.9   826.3    0.00     239    35.1
 344   14:30   48.8    45    6.3   226     12.1   826.3    0.00     443    35.2
 344   14:40   49.0    46    6.2   220     11.4   826.2    0.00     360    35.3
 344   14:50   47.8    49    7.2   223     13.4   826.1    0.00     225    35.3
 344   15:00   47.3    51    5.9   229     11.8   826.1    0.00     190    35.4
 344   15:10   47.0    51    5.3   216     10.4   826.1    0.00     142    35.4
 344   15:20   47.4    51    4.2   218      8.4   826.1    0.00     169    35.5
 344   15:30   48.6    50    3.9   209      7.7   826.1    0.00     214    35.6
 344   15:40   49.4    49    4.1   211      6.9   826.0    0.00     238    35.7
 344   15:50   49.4    49    4.6   204      8.3   826.0    0.00     213    35.8
 344   16:00   49.9    48    4.8   222     10.0   825.9    0.00     110    35.8
 344   16:10   49.2    50    5.4   221      8.9   825.9    0.00     114    35.9
 344   16:20   49.1    51    3.2   220      6.9   825.9    0.00     117    35.9
 344   16:30   48.4    52    4.9   225      8.0   825.9    0.00      94    35.9
 344   16:40   47.4    54    5.0   210      9.3   826.0    0.00      74    36.0
 344   16:50   45.9    56    6.1   217     10.3   826.0    0.00      35    36.0
 344   17:00   44.8    58    5.8   216     11.5   825.9    0.00      24    36.1
 344   17:10   43.8    60    5.0   216      9.8   826.0    0.00      12    36.1
 344   17:20   42.9    62    5.4   209      9.0   826.0    0.00       3    36.2
 344   17:30   42.2    64    5.1   203      9.1   825.9    0.00       3    36.2
 344   17:40   41.7    64    1.1   186      4.6   825.8    0.00       0    36.2
 344   17:50   41.0    65    0.6   175      1.8   825.8    0.00       0    36.3
 344   18:00   40.7    66    4.2   211      8.8   825.8    0.00       0    36.3
 344   18:10   40.2    67    3.4   199      6.3   825.7    0.00       0    36.4
 344   18:20   39.7    68    2.0   184      5.0   825.7    0.00       0    36.3
 344   18:30   39.3    68    2.4   197      5.1   825.7    0.00       0    36.3
 344   18:40   39.1    68    2.5   193      7.0   825.7    0.00       0    36.4
 344   18:50   39.3    69    2.7   174      8.5   825.5    0.00       0    36.4
 344   19:00   39.5    67    3.5   201      6.1   825.4    0.00       0    36.4
 344   19:10   39.6    67    1.3   153      3.7   825.4    0.00       0    36.4
 344   19:20   38.9    69    1.2   184      3.6   825.4    0.00       0    36.4
 344   19:30   38.3    70    2.2   240      4.8   825.5    0.00       0    36.4
 344   19:40   37.7    71    1.6   190      4.2   825.6    0.00       0    36.4
 344   19:50   37.4    70    0.8   166      2.9   825.6    0.00       0    36.4
 344   20:00   37.6    69    1.4   136      3.3   825.5    0.00       0    36.4
 344   20:10   37.8    68    0.1    58      1.2   825.4    0.00       0    36.4
 344   20:20   37.1    69    0.3   167      2.0   825.4    0.00       0    36.4
 344   20:30   36.3    70    1.5   113      3.3   825.5    0.00       0    36.3
 344   20:40   36.1    69    1.2   114      3.9   825.4    0.00       0    36.4
 344   20:50   35.5    70    0.5   183      1.6   825.3    0.00       0    36.3
 344   21:00   34.4    71    0.2   179      1.4   825.3    0.00       0    36.3
 344   21:10   33.4    73    0.5   189      1.5   825.2    0.00       0    36.3
 344   21:20   33.5    74    0.4    65      1.5   825.3    0.00       0    36.3
 344   21:30   33.9    73    1.8    59      2.6   825.5    0.00       0    36.2
 344   21:40   34.1    72    1.7   102      3.4   825.5    0.00       0    36.2
 344   21:50   34.6    72    1.2   129      3.0   825.4    0.00       0    36.2
 344   22:00   33.5    73    0.7   215      1.9   825.2    0.00       0    36.2
 344   22:10   32.6    75    0.6   199      2.0   825.2    0.00       0    36.1
 344   22:20   33.0    76    1.0   144      2.9   825.5    0.00       0    36.1
 344   22:30   32.4    77    0.4   162      1.6   825.8    0.00       0    36.1
 344   22:40   32.6    78    1.6   145      3.6   825.8    0.00       0    36.1
 344   22:50   32.4    76    0.2   183      1.3   825.7    0.00       0    36.1
 344   23:00   31.0    78    1.4   206      2.7   825.7    0.00       0    36.0
 344   23:10   30.6    80    0.2   120      1.3   825.7    0.00       0    36.0
 344   23:20   31.0    81    1.3    84      2.6   825.5    0.00       0    35.9
 344   23:30   31.2    80    0.7   110      2.3   825.5    0.00       0    35.9
 344   23:40   30.3    80    0.7   196      2.6   825.4    0.00       0    35.9
 344   23:50   30.0    82    0.2    89      1.6   825.3    0.00       0    35.9
 345    0:00   29.9    81    1.9   196      4.0   825.4    0.00       0    35.8
 345    0:10   30.4    81    1.2   155      4.1   825.3    0.00       0    35.8
 345    0:20   30.0    80    0.7   202      2.3   825.3    0.00       0    35.8
 345    0:30   29.7    82    0.8   128      3.1   825.2    0.00       0    35.8
 345    0:40   30.4    82    1.3   183      2.3   825.1    0.00       0    35.7
 345    0:50   31.3    81    1.2   112      2.5   824.7    0.00       0    35.7
 345    1:00   30.7    81    1.2   195      4.3   824.5    0.00       0    35.7
 345    1:10   29.8    82    2.5   196      4.2   824.5    0.00       0    35.6
 345    1:20   30.1    82    0.4   204      2.6   824.4    0.00       0    35.6
 345    1:30   31.2    81    1.4   132      3.1   824.3    0.00       0    35.6
 345    1:40   31.7    78    0.5   138      2.1   824.4    0.00       0    35.6
 345    1:50   31.1    80    1.9    69      3.2   824.7    0.00       0    35.5
 345    2:00   31.2    79    0.9    72      1.9   824.8    0.00       0    35.5
 345    2:10   30.5    79    0.9   191      3.3   825.1    0.00       0    35.5
 345    2:20   30.0    81    1.7   151      2.9   825.2    0.00       0    35.5
 345    2:30   29.1    82    0.9   213      3.0   825.1    0.00       0    35.4
 345    2:40   28.8    82    1.3   172      2.9   824.9    0.00       0    35.4
 345    2:50   29.1    82    0.5   152      2.6   824.7    0.00       0    35.4
 345    3:00   29.5    83    1.3   137      2.8   824.7    0.00       0    35.3
 345    3:10   30.0    84    1.1    80      2.9   824.5    0.00       0    35.4
 345    3:20   32.0    85    2.2    68      3.9   824.3    0.00       0    35.3
 345    3:30   31.6    80    0.4   175      1.8   824.2    0.00       0    35.3
 345    3:40   29.6    83    1.0   206      2.3   824.2    0.00       0    35.2
 345    3:50   29.3    85    0.3   139      2.0   824.3    0.00       0    35.2
 345    4:00   29.6    86    0.8   116      2.0   824.2    0.00       0    35.2
 345    4:10   29.0    86    0.7   213      1.8   823.8    0.00       0    35.2
 345    4:20   29.2    88    0.8   131      2.6   823.7    0.00       0    35.1
 345    4:30   29.3    88    0.8   188      2.6   823.6    0.00       0    35.1
 345    4:40   29.4    88    1.2   124      2.8   823.6    0.00       0    35.1
 345    4:50   29.6    89    0.5   154      1.8   823.4    0.00       0    35.1
 345    5:00   28.7    89    0.4   188      1.5   823.4    0.00       0    35.1
 345    5:10   28.5    89    0.1    84      1.0   823.4    0.00       0    35.0
 345    5:20   28.7    90    1.3   104      3.1   823.3    0.00       0    35.0
 345    5:30   29.1    90    0.4   121      1.8   823.3    0.00       0    35.0
 345    5:40   28.4    89    1.0   192      3.6   823.1    0.00       0    35.0
 345    5:50   29.0    90    0.8    91      2.0   823.1    0.00       0    34.9
 345    6:00   29.3    90    2.0   163      4.1   823.1    0.00       0    34.9
 345    6:10   29.3    90    0.8   200      1.8   823.1    0.00       0    34.9
 345    6:20   29.0    90    1.7   194      3.5   823.1    0.00       0    34.9
 345    6:30   29.1    89    0.6   194      2.5   822.9    0.00       0    34.9
 345    6:40   29.0    89    0.5   127      2.1   822.8    0.00       0    34.8
 345    6:50   28.5    89    0.4   181      2.3   822.7    0.00       0    34.8
 345    7:00   28.9    90    1.0    89      2.5   822.5    0.00       0    34.8
 345    7:10   29.5    89    1.0   131      2.4   822.6    0.00       0    34.8
 345    7:20   29.8    88    1.3   151      2.2   822.6    0.00       0    34.8
 345    7:30   29.0    87    0.8   192      3.0   822.6    0.00       3    34.7
 345    7:40   29.0    88    0.8   187      1.9   822.6    0.00       1    34.7

Return to Cedar City, Utah graphs page.


Western Regional Climate Center,wrcc@dri.edu